createdAt,value
2018-02-25T00:02:07.336Z,-0.56
2018-02-25T00:04:33.460Z,-0.54
2018-02-25T00:06:59.656Z,-0.57
2018-02-25T00:09:25.833Z,-0.54
2018-02-25T00:11:52.113Z,-0.57
2018-02-25T00:14:18.265Z,-0.60
2018-02-25T00:16:44.507Z,-0.62
2018-02-25T00:19:10.649Z,-0.63
2018-02-25T00:21:36.895Z,-0.61
2018-02-25T00:24:03.141Z,-0.61
2018-02-25T00:26:29.342Z,-0.62
2018-02-25T00:28:55.482Z,-0.65
2018-02-25T00:31:21.662Z,-0.64
2018-02-25T00:33:47.824Z,-0.66
2018-02-25T00:36:14.038Z,-0.69
2018-02-25T00:38:40.202Z,-0.72
2018-02-25T00:41:06.381Z,-0.71
2018-02-25T00:43:32.669Z,-0.74
2018-02-25T00:45:58.923Z,-0.75
2018-02-25T00:48:25.089Z,-0.72
2018-02-25T00:50:51.277Z,-0.74
2018-02-25T00:53:17.481Z,-0.75
2018-02-25T00:55:43.672Z,-0.77
2018-02-25T00:58:09.859Z,-0.76
2018-02-25T01:00:36.064Z,-0.80
2018-02-25T01:03:02.180Z,-0.82
2018-02-25T01:05:28.426Z,-0.81
2018-02-25T01:07:54.586Z,-0.87
2018-02-25T01:10:20.758Z,-0.86
2018-02-25T01:12:46.983Z,-0.89
2018-02-25T01:15:13.189Z,-0.91
2018-02-25T01:17:39.353Z,-0.93
2018-02-25T01:20:05.522Z,-0.93
2018-02-25T01:22:31.733Z,-0.95
2018-02-25T01:24:57.901Z,-0.96
2018-02-25T01:27:24.079Z,-0.98
2018-02-25T01:29:50.232Z,-1.02
2018-02-25T01:32:16.409Z,-1.02
2018-02-25T01:34:42.582Z,-1.04
2018-02-25T01:37:08.795Z,-1.08
2018-02-25T01:39:34.988Z,-1.09
2018-02-25T01:42:01.142Z,-1.15
2018-02-25T01:44:27.397Z,-1.17
2018-02-25T01:46:53.612Z,-1.20
2018-02-25T01:49:19.847Z,-1.19
2018-02-25T01:51:46.047Z,-1.21
2018-02-25T01:54:12.273Z,-1.26
2018-02-25T01:56:38.451Z,-1.30
2018-02-25T01:59:04.601Z,-1.34
2018-02-25T02:01:30.774Z,-1.40
2018-02-25T02:03:57.265Z,-1.39
2018-02-25T02:06:23.515Z,-1.43
2018-02-25T02:08:49.651Z,-1.45
2018-02-25T02:11:15.831Z,-1.46
2018-02-25T02:13:42.033Z,-1.49
2018-02-25T02:16:08.292Z,-1.49
2018-02-25T02:18:34.522Z,-1.51
2018-02-25T02:21:00.700Z,-1.51
2018-02-25T02:23:26.815Z,-1.49
2018-02-25T02:25:53.015Z,-1.50
2018-02-25T02:28:19.177Z,-1.51
2018-02-25T02:30:45.365Z,-1.55
2018-02-25T02:33:11.525Z,-1.55
2018-02-25T02:35:38.595Z,-1.58
2018-02-25T02:38:04.727Z,-1.61
2018-02-25T02:43:06.000Z,-1.61
2018-02-25T02:45:32.466Z,-1.61
2018-02-25T02:47:58.631Z,-1.64
2018-02-25T02:50:24.789Z,-1.65
2018-02-25T02:52:50.985Z,-1.67
2018-02-25T02:55:17.217Z,-1.69
2018-02-25T02:57:43.393Z,-1.70
2018-02-25T03:00:10.365Z,-1.73
2018-02-25T03:02:36.568Z,-1.70
2018-02-25T03:05:02.737Z,-1.74
2018-02-25T03:07:28.954Z,-1.75
2018-02-25T03:09:55.133Z,-1.76
2018-02-25T03:12:21.265Z,-1.77
2018-02-25T03:14:47.428Z,-1.81
2018-02-25T03:17:13.651Z,-1.83
2018-02-25T03:19:39.854Z,-1.82
2018-02-25T03:22:06.039Z,-1.81
2018-02-25T03:24:32.226Z,-1.82
2018-02-25T03:26:58.432Z,-1.86
2018-02-25T03:29:24.617Z,-1.86
2018-02-25T03:31:50.822Z,-1.87
2018-02-25T03:34:17.079Z,-1.89
2018-02-25T03:36:43.302Z,-1.93
2018-02-25T03:39:09.455Z,-1.92
2018-02-25T03:41:35.637Z,-1.98
2018-02-25T03:44:02.765Z,-2.00
2018-02-25T03:46:28.996Z,-2.04
2018-02-25T03:48:55.352Z,-2.06
2018-02-25T03:51:21.497Z,-2.08
2018-02-25T03:53:47.611Z,-2.08
2018-02-25T03:56:13.823Z,-2.07
2018-02-25T03:58:40.041Z,-2.07
2018-02-25T04:01:06.169Z,-2.08
2018-02-25T04:03:32.336Z,-2.06
2018-02-25T04:05:58.497Z,-2.11
2018-02-25T04:08:24.754Z,-2.15
2018-02-25T04:10:50.907Z,-2.16
2018-02-25T04:13:17.020Z,-2.18
2018-02-25T04:15:43.294Z,-2.20
2018-02-25T04:18:09.468Z,-2.21
2018-02-25T04:20:35.680Z,-2.22
2018-02-25T04:23:01.798Z,-2.24
2018-02-25T04:25:27.994Z,-2.23
2018-02-25T04:27:54.172Z,-2.26
2018-02-25T04:30:20.391Z,-2.25
2018-02-25T04:32:46.526Z,-2.27
2018-02-25T04:35:12.720Z,-2.26
2018-02-25T04:37:38.899Z,-2.25
2018-02-25T04:40:05.053Z,-2.23
2018-02-25T04:42:31.192Z,-2.22
2018-02-25T04:44:58.308Z,-2.26
2018-02-25T04:47:24.519Z,-2.26
2018-02-25T04:49:51.220Z,-2.26
2018-02-25T04:52:17.411Z,-2.29
2018-02-25T04:54:43.544Z,-2.29
2018-02-25T04:57:09.728Z,-2.29
2018-02-25T04:59:35.924Z,-2.32
2018-02-25T05:02:02.096Z,-2.33
2018-02-25T05:04:28.271Z,-2.32
2018-02-25T05:06:54.512Z,-2.34
2018-02-25T05:09:20.679Z,-2.31
2018-02-25T05:11:46.836Z,-2.34
2018-02-25T05:14:12.992Z,-2.37
2018-02-25T05:16:39.255Z,-2.39
2018-02-25T05:19:05.411Z,-2.40
2018-02-25T05:21:31.583Z,-2.41
2018-02-25T05:23:57.743Z,-2.44
2018-02-25T05:26:23.969Z,-2.44
2018-02-25T05:28:50.175Z,-2.44
2018-02-25T05:31:16.403Z,-2.47
2018-02-25T05:33:42.538Z,-2.48
2018-02-25T05:36:08.778Z,-2.50
2018-02-25T05:38:34.950Z,-2.52
2018-02-25T05:41:01.102Z,-2.53
2018-02-25T05:43:27.307Z,-2.57
2018-02-25T05:45:53.507Z,-2.56
2018-02-25T05:48:19.666Z,-2.58
2018-02-25T05:50:45.815Z,-2.59
2018-02-25T05:53:12.613Z,-2.59
2018-02-25T05:55:38.829Z,-2.61
2018-02-25T05:58:05.042Z,-2.62
2018-02-25T06:00:31.196Z,-2.64
2018-02-25T06:02:57.450Z,-2.65
2018-02-25T06:05:23.608Z,-2.65
2018-02-25T06:07:50.016Z,-2.67
2018-02-25T06:10:16.208Z,-2.71
2018-02-25T06:12:42.429Z,-2.71
2018-02-25T06:15:08.627Z,-2.71
2018-02-25T06:17:34.824Z,-2.74
2018-02-25T06:20:01.011Z,-2.75
2018-02-25T06:22:27.482Z,-2.78
2018-02-25T06:24:53.684Z,-2.79
2018-02-25T06:27:19.909Z,-2.80
2018-02-25T06:29:46.099Z,-2.79
2018-02-25T06:32:12.338Z,-2.79
2018-02-25T06:34:38.549Z,-2.79
2018-02-25T06:37:04.758Z,-2.81
2018-02-25T06:39:30.929Z,-2.81
2018-02-25T06:41:57.147Z,-2.84
2018-02-25T06:44:23.346Z,-2.85
2018-02-25T06:46:50.453Z,-2.86
2018-02-25T06:49:16.593Z,-2.84
2018-02-25T06:51:42.742Z,-2.86
2018-02-25T06:54:08.901Z,-2.84
2018-02-25T06:56:35.122Z,-2.85
2018-02-25T06:59:01.287Z,-2.84
2018-02-25T07:01:27.508Z,-2.87
2018-02-25T07:03:53.687Z,-2.88
2018-02-25T07:06:19.867Z,-2.87
2018-02-25T07:08:46.076Z,-2.86
2018-02-25T07:11:12.241Z,-2.84
2018-02-25T07:13:38.404Z,-2.84
2018-02-25T07:16:04.622Z,-2.81
2018-02-25T07:18:30.840Z,-2.80
2018-02-25T07:20:57.047Z,-2.75
2018-02-25T07:23:23.830Z,-2.72
2018-02-25T07:25:50.003Z,-2.69
2018-02-25T07:28:16.210Z,-2.65
2018-02-25T07:30:42.384Z,-2.61
2018-02-25T07:33:08.687Z,-2.58
2018-02-25T07:35:34.856Z,-2.54
2018-02-25T07:38:01.044Z,-2.50
2018-02-25T07:40:27.262Z,-2.44
2018-02-25T07:42:53.430Z,-2.38
2018-02-25T07:45:19.608Z,-2.31
2018-02-25T07:47:45.865Z,-2.26
2018-02-25T07:50:12.030Z,-2.19
2018-02-25T07:52:38.164Z,-2.14
2018-02-25T07:55:04.354Z,-2.11
2018-02-25T07:57:30.576Z,-2.07
2018-02-25T07:59:56.736Z,-2.01
2018-02-25T08:02:22.951Z,-1.98
2018-02-25T08:04:49.088Z,-1.94
2018-02-25T08:07:15.353Z,-1.78
2018-02-25T08:09:41.511Z,-1.68
2018-02-25T08:12:07.760Z,-1.62
2018-02-25T08:14:33.989Z,-1.62
2018-02-25T08:17:00.187Z,-1.62
2018-02-25T08:19:26.373Z,-1.54
2018-02-25T08:21:52.558Z,-1.48
2018-02-25T08:27:22.388Z,-1.43
2018-02-25T08:29:49.554Z,-1.43
2018-02-25T08:32:16.710Z,-1.38
2018-02-25T08:37:41.765Z,-1.14
2018-02-25T08:40:29.052Z,-0.94
2018-02-25T08:45:59.699Z,0.36
2018-02-25T08:48:25.941Z,0.98
2018-02-25T08:50:52.390Z,1.49
2018-02-25T08:53:22.996Z,1.67
2018-02-25T08:55:50.048Z,2.11
2018-02-25T08:58:16.285Z,2.49
2018-02-25T09:00:42.478Z,2.40
2018-02-25T09:03:08.711Z,3.05
2018-02-25T09:05:34.966Z,3.04
2018-02-25T09:08:01.184Z,2.29
2018-02-25T09:10:28.193Z,2.51
2018-02-25T09:12:54.377Z,2.87
2018-02-25T09:15:20.515Z,3.01
2018-02-25T09:17:46.733Z,2.82
2018-02-25T09:20:13.014Z,2.15
2018-02-25T09:22:39.185Z,1.76
2018-02-25T09:25:05.408Z,1.66
2018-02-25T09:27:31.660Z,1.41
2018-02-25T09:29:57.789Z,1.20
2018-02-25T09:32:24.006Z,1.07
2018-02-25T09:34:50.160Z,1.16
2018-02-25T09:37:16.402Z,1.06
2018-02-25T09:39:42.600Z,0.85
2018-02-25T09:42:08.774Z,0.96
2018-02-25T09:44:35.014Z,0.88
2018-02-25T09:47:01.381Z,0.91
2018-02-25T09:49:27.580Z,0.69
2018-02-25T09:51:53.758Z,0.35
2018-02-25T09:54:20.161Z,0.37
2018-02-25T09:56:46.344Z,0.32
2018-02-25T09:59:12.536Z,0.45
2018-02-25T10:01:38.716Z,0.31
2018-02-25T10:04:05.224Z,0.42
2018-02-25T10:06:31.416Z,0.48
2018-02-25T10:08:57.617Z,0.45
2018-02-25T10:11:23.774Z,0.52
2018-02-25T10:13:49.900Z,0.56
2018-02-25T10:16:16.188Z,0.56
2018-02-25T10:18:42.345Z,0.72
2018-02-25T10:21:08.512Z,0.90
2018-02-25T10:23:34.644Z,0.98
2018-02-25T10:26:07.883Z,1.06
2018-02-25T10:28:34.119Z,1.05
2018-02-25T10:31:00.503Z,1.02
2018-02-25T10:33:26.951Z,0.84
2018-02-25T10:35:53.234Z,0.91
2018-02-25T10:38:19.400Z,0.90
2018-02-25T10:40:45.550Z,0.89
2018-02-25T10:43:12.000Z,1.03
2018-02-25T10:45:38.229Z,1.24
2018-02-25T10:48:04.507Z,1.40
2018-02-25T10:50:30.679Z,1.40
2018-02-25T10:52:56.877Z,1.42
2018-02-25T10:55:23.138Z,1.44
2018-02-25T10:57:49.509Z,1.38
2018-02-25T11:00:21.880Z,1.25
2018-02-25T11:02:48.069Z,1.23
2018-02-25T11:05:14.295Z,1.23
2018-02-25T11:07:40.520Z,1.22
2018-02-25T11:10:06.941Z,1.39
2018-02-25T11:12:33.090Z,1.37
2018-02-25T11:14:59.262Z,1.45
2018-02-25T11:17:25.478Z,1.37
2018-02-25T11:19:51.672Z,1.38
2018-02-25T11:22:17.829Z,1.48
2018-02-25T11:24:43.993Z,1.53
2018-02-25T11:27:10.217Z,1.51
2018-02-25T11:29:36.419Z,1.50
2018-02-25T11:32:02.628Z,1.60
2018-02-25T11:34:28.868Z,1.62
2018-02-25T11:36:55.637Z,1.57
2018-02-25T11:39:21.824Z,1.60
2018-02-25T11:41:48.039Z,1.73
2018-02-25T11:44:15.182Z,1.62
2018-02-25T11:46:41.314Z,1.60
2018-02-25T11:49:07.412Z,1.57
2018-02-25T11:51:33.643Z,1.63
2018-02-25T11:53:59.908Z,1.59
2018-02-25T11:56:26.118Z,1.76
2018-02-25T11:58:52.357Z,1.91
2018-02-25T12:01:18.599Z,2.03
2018-02-25T12:03:44.753Z,1.84
2018-02-25T12:06:10.935Z,1.80
2018-02-25T12:08:37.145Z,1.91
2018-02-25T12:11:03.397Z,2.03
2018-02-25T12:13:29.563Z,2.17
2018-02-25T12:15:55.719Z,2.18
2018-02-25T12:18:22.559Z,2.17
2018-02-25T12:20:48.824Z,2.17
2018-02-25T12:23:14.961Z,2.16
2018-02-25T12:25:42.190Z,2.23
2018-02-25T12:28:08.383Z,2.37
2018-02-25T12:30:34.612Z,2.44
2018-02-25T12:33:00.889Z,2.41
2018-02-25T12:35:27.172Z,2.39
2018-02-25T12:37:53.395Z,2.50
2018-02-25T12:40:19.654Z,2.41
2018-02-25T12:42:45.856Z,2.39
2018-02-25T12:45:12.055Z,2.40
2018-02-25T12:47:38.269Z,2.37
2018-02-25T12:50:04.511Z,2.46
2018-02-25T12:52:30.690Z,2.50
2018-02-25T12:54:56.849Z,2.42
2018-02-25T12:57:23.081Z,2.56
2018-02-25T12:59:49.309Z,2.58
2018-02-25T13:02:15.510Z,2.57
2018-02-25T13:04:41.706Z,2.66
2018-02-25T13:07:07.934Z,2.67
2018-02-25T13:09:34.154Z,2.72
2018-02-25T13:12:00.397Z,2.71
2018-02-25T13:14:26.574Z,2.66
2018-02-25T13:16:52.723Z,2.68
2018-02-25T13:19:19.036Z,3.11
2018-02-25T13:21:45.438Z,3.58
2018-02-25T13:24:11.605Z,4.04
2018-02-25T13:26:37.832Z,3.55
2018-02-25T13:29:04.025Z,3.40
2018-02-25T13:31:30.273Z,3.01
2018-02-25T13:33:56.481Z,2.99
2018-02-25T13:36:22.714Z,2.92
2018-02-25T13:38:48.971Z,2.89
2018-02-25T13:41:15.239Z,2.86
2018-02-25T13:43:41.512Z,3.02
2018-02-25T13:46:07.674Z,4.05
2018-02-25T13:48:33.922Z,5.02
2018-02-25T13:51:00.158Z,5.18
2018-02-25T13:53:26.326Z,5.89
2018-02-25T13:55:52.543Z,7.12
2018-02-25T13:58:18.698Z,6.90
2018-02-25T14:00:44.892Z,6.60
2018-02-25T14:03:11.081Z,6.53
2018-02-25T14:05:38.304Z,5.78
2018-02-25T14:08:04.513Z,5.24
2018-02-25T14:10:30.795Z,5.14
2018-02-25T14:12:56.987Z,4.60
2018-02-25T14:15:23.196Z,4.05
2018-02-25T14:17:49.341Z,4.07
2018-02-25T14:20:15.557Z,3.83
2018-02-25T14:22:41.781Z,3.58
2018-02-25T14:25:07.992Z,3.51
2018-02-25T14:27:34.176Z,3.36
2018-02-25T14:30:00.394Z,3.23
2018-02-25T14:32:26.745Z,3.08
2018-02-25T14:34:52.947Z,3.07
2018-02-25T14:37:19.313Z,3.08
2018-02-25T14:39:45.466Z,2.97
2018-02-25T14:42:11.744Z,3.03
2018-02-25T14:44:39.154Z,2.75
2018-02-25T14:47:05.449Z,2.83
2018-02-25T14:49:31.646Z,2.75
2018-02-25T14:51:57.891Z,2.72
2018-02-25T14:54:24.049Z,2.69
2018-02-25T14:56:50.280Z,2.65
2018-02-25T14:59:16.431Z,2.75
2018-02-25T15:01:42.640Z,2.81
2018-02-25T15:04:08.774Z,2.67
2018-02-25T15:06:34.975Z,2.54
2018-02-25T15:09:01.191Z,2.57
2018-02-25T15:11:27.434Z,2.38
2018-02-25T15:13:53.713Z,2.36
2018-02-25T15:16:19.951Z,2.25
2018-02-25T15:18:46.137Z,2.23
2018-02-25T15:21:12.350Z,2.31
2018-02-25T15:23:38.562Z,2.19
2018-02-25T15:26:04.808Z,2.16
2018-02-25T15:28:31.015Z,2.20
2018-02-25T15:30:57.244Z,2.19
2018-02-25T15:33:23.479Z,2.12
2018-02-25T15:35:49.705Z,2.09
2018-02-25T15:38:15.883Z,2.04
2018-02-25T15:40:42.154Z,2.05
2018-02-25T15:43:08.343Z,2.04
2018-02-25T15:45:34.597Z,2.07
2018-02-25T15:48:00.820Z,1.94
2018-02-25T15:50:27.030Z,1.89
2018-02-25T15:52:53.217Z,1.86
2018-02-25T15:55:19.436Z,1.87
2018-02-25T15:57:45.641Z,1.84
2018-02-25T16:00:11.840Z,1.80
2018-02-25T16:02:38.071Z,1.83
2018-02-25T16:05:04.215Z,1.80
2018-02-25T16:07:30.448Z,1.75
2018-02-25T16:09:56.606Z,1.80
2018-02-25T16:12:22.818Z,1.82
2018-02-25T16:14:48.997Z,1.82
2018-02-25T16:17:15.149Z,1.80
2018-02-25T16:19:41.287Z,1.76
2018-02-25T16:22:07.506Z,1.77
2018-02-25T16:24:33.637Z,1.69
2018-02-25T16:26:59.866Z,1.64
2018-02-25T16:29:26.065Z,1.55
2018-02-25T16:31:52.270Z,1.49
2018-02-25T16:34:18.507Z,1.40
2018-02-25T16:36:44.701Z,1.37
2018-02-25T16:39:10.844Z,1.30
2018-02-25T16:41:37.055Z,1.27
2018-02-25T16:44:03.255Z,1.19
2018-02-25T16:46:29.424Z,1.14
2018-02-25T16:48:55.653Z,1.05
2018-02-25T16:51:21.899Z,1.00
2018-02-25T16:53:48.152Z,0.94
2018-02-25T16:56:14.394Z,0.88
2018-02-25T16:58:40.703Z,0.87
2018-02-25T17:01:06.958Z,0.81
2018-02-25T17:03:33.110Z,0.77
2018-02-25T17:05:59.237Z,0.73
2018-02-25T17:08:25.513Z,0.67
2018-02-25T17:10:51.743Z,0.58
2018-02-25T17:13:17.934Z,0.56
2018-02-25T17:15:44.136Z,0.50
2018-02-25T17:18:10.372Z,0.46
2018-02-25T17:20:36.702Z,0.40
2018-02-25T17:23:02.930Z,0.34
2018-02-25T17:25:29.148Z,0.32
2018-02-25T17:27:55.447Z,0.32
2018-02-25T17:30:21.683Z,0.27
2018-02-25T17:32:47.905Z,0.23
2018-02-25T17:35:14.133Z,0.20
2018-02-25T17:37:40.398Z,0.18
2018-02-25T17:40:06.627Z,0.12
2018-02-25T17:42:32.862Z,0.10
2018-02-25T17:44:59.092Z,0.04
2018-02-25T17:47:25.309Z,0.05
2018-02-25T17:49:51.517Z,0.02
2018-02-25T17:52:17.736Z,-0.02
2018-02-25T17:54:43.959Z,-0.04
2018-02-25T17:57:10.182Z,-0.07
2018-02-25T17:59:36.392Z,-0.08
2018-02-25T18:02:02.616Z,-0.11
2018-02-25T18:04:28.801Z,-0.12
2018-02-25T18:06:54.940Z,-0.16
2018-02-25T18:09:21.088Z,-0.20
2018-02-25T18:11:47.324Z,-0.27
2018-02-25T18:14:13.606Z,-0.27
2018-02-25T18:16:39.833Z,-0.28
2018-02-25T18:19:06.066Z,-0.30
2018-02-25T18:21:32.310Z,-0.26
2018-02-25T18:23:58.495Z,-0.26
2018-02-25T18:26:24.764Z,-0.29
2018-02-25T18:28:51.023Z,-0.34
2018-02-25T18:31:17.258Z,-0.33
2018-02-25T18:33:43.408Z,-0.33
2018-02-25T18:36:09.592Z,-0.34
2018-02-25T18:38:35.824Z,-0.39
2018-02-25T18:41:02.070Z,-0.41
2018-02-25T18:43:28.219Z,-0.43
2018-02-25T18:45:54.388Z,-0.46
2018-02-25T18:48:20.576Z,-0.53
2018-02-25T18:50:46.801Z,-0.52
2018-02-25T18:53:13.048Z,-0.50
2018-02-25T18:55:39.289Z,-0.51
2018-02-25T18:58:05.531Z,-0.54
2018-02-25T19:00:31.716Z,-0.53
2018-02-25T19:02:58.009Z,-0.53
2018-02-25T19:05:24.258Z,-0.55
2018-02-25T19:07:50.490Z,-0.55
2018-02-25T19:10:16.722Z,-0.56
2018-02-25T19:12:42.960Z,-0.57
2018-02-25T19:15:09.693Z,-0.57
2018-02-25T19:17:35.942Z,-0.55
2018-02-25T19:20:02.097Z,-0.53
2018-02-25T19:22:28.358Z,-0.53
2018-02-25T19:24:54.535Z,-0.52
2018-02-25T19:27:20.773Z,-0.56
2018-02-25T19:29:47.024Z,-0.57
2018-02-25T19:32:13.226Z,-0.55
2018-02-25T19:34:39.410Z,-0.59
2018-02-25T19:37:11.656Z,-0.56
2018-02-25T19:39:43.806Z,-0.56
2018-02-25T19:42:10.973Z,-0.55
2018-02-25T19:44:37.210Z,-0.55
2018-02-25T19:47:03.369Z,-0.58
2018-02-25T19:49:29.586Z,-0.59
2018-02-25T19:51:55.866Z,-0.59
2018-02-25T19:54:22.118Z,-0.64
2018-02-25T19:56:48.353Z,-0.66
2018-02-25T19:59:14.555Z,-0.70
2018-02-25T20:01:40.771Z,-0.69
2018-02-25T20:04:06.958Z,-0.74
2018-02-25T20:06:33.138Z,-0.75
2018-02-25T20:08:59.332Z,-0.79
2018-02-25T20:11:25.594Z,-0.81
2018-02-25T20:13:51.769Z,-0.83
2018-02-25T20:16:17.954Z,-0.83
2018-02-25T20:18:44.274Z,-0.84
2018-02-25T20:21:10.462Z,-0.83
2018-02-25T20:23:36.699Z,-0.82
2018-02-25T20:26:02.945Z,-0.86
2018-02-25T20:28:29.121Z,-0.87
2018-02-25T20:30:55.271Z,-0.93
2018-02-25T20:33:21.489Z,-0.91
2018-02-25T20:35:47.653Z,-0.91
2018-02-25T20:38:13.865Z,-0.91
2018-02-25T20:40:40.061Z,-0.96
2018-02-25T20:43:06.302Z,-0.98
2018-02-25T20:45:32.470Z,-0.98
2018-02-25T20:47:58.708Z,-1.03
2018-02-25T20:50:25.502Z,-1.03
2018-02-25T20:52:51.730Z,-1.05
2018-02-25T20:55:17.887Z,-1.09
2018-02-25T20:57:44.204Z,-1.10
2018-02-25T21:00:10.442Z,-1.13
2018-02-25T21:02:36.706Z,-1.14
2018-02-25T21:05:02.936Z,-1.18
2018-02-25T21:07:29.084Z,-1.20
2018-02-25T21:09:55.308Z,-1.23
2018-02-25T21:12:21.561Z,-1.25
2018-02-25T21:14:47.701Z,-1.32
2018-02-25T21:17:13.893Z,-1.36
2018-02-25T21:19:40.038Z,-1.37
2018-02-25T21:22:06.234Z,-1.39
2018-02-25T21:24:32.386Z,-1.39
2018-02-25T21:26:58.606Z,-1.40
2018-02-25T21:29:24.808Z,-1.43
2018-02-25T21:31:51.033Z,-1.46
2018-02-25T21:34:17.177Z,-1.47
2018-02-25T21:36:43.399Z,-1.50
2018-02-25T21:39:09.581Z,-1.52
2018-02-25T21:41:35.751Z,-1.54
2018-02-25T21:44:01.951Z,-1.55
2018-02-25T21:46:28.067Z,-1.57
2018-02-25T21:48:54.240Z,-1.61
2018-02-25T21:51:20.479Z,-1.62
2018-02-25T21:53:46.705Z,-1.62
2018-02-25T21:56:19.102Z,-1.65
2018-02-25T21:58:51.359Z,-1.66
2018-02-25T22:01:23.482Z,-1.67
2018-02-25T22:03:55.922Z,-1.68
2018-02-25T22:06:22.076Z,-1.72
2018-02-25T22:08:48.284Z,-1.70
2018-02-25T22:11:14.464Z,-1.71
2018-02-25T22:13:40.709Z,-1.73
2018-02-25T22:16:06.842Z,-1.73
2018-02-25T22:18:33.063Z,-1.74
2018-02-25T22:20:59.246Z,-1.75
2018-02-25T22:23:25.472Z,-1.75
2018-02-25T22:25:51.648Z,-1.77
2018-02-25T22:28:17.852Z,-1.76
2018-02-25T22:30:44.024Z,-1.77
2018-02-25T22:33:10.208Z,-1.77
2018-02-25T22:35:36.396Z,-1.73
2018-02-25T22:38:02.567Z,-1.73
2018-02-25T22:40:28.673Z,-1.74
2018-02-25T22:42:54.922Z,-1.73
2018-02-25T22:45:21.197Z,-1.72
2018-02-25T22:47:47.352Z,-1.68
2018-02-25T22:50:13.506Z,-1.68
2018-02-25T22:52:39.713Z,-1.68
2018-02-25T22:55:05.875Z,-1.67
2018-02-25T22:57:32.062Z,-1.65
2018-02-25T22:59:58.217Z,-1.65
2018-02-25T23:02:24.496Z,-1.66
2018-02-25T23:04:50.623Z,-1.68
2018-02-25T23:07:16.799Z,-1.73
2018-02-25T23:09:42.940Z,-1.71
2018-02-25T23:12:09.166Z,-1.73
2018-02-25T23:14:35.369Z,-1.74
2018-02-25T23:17:01.534Z,-1.74
2018-02-25T23:19:27.693Z,-1.75
2018-02-25T23:21:53.880Z,-1.76
2018-02-25T23:24:20.056Z,-1.79
2018-02-25T23:26:46.257Z,-1.84
2018-02-25T23:29:12.446Z,-1.85
2018-02-25T23:31:38.584Z,-1.88
2018-02-25T23:34:04.774Z,-1.90
2018-02-25T23:36:30.944Z,-1.92
2018-02-25T23:38:57.079Z,-1.94
2018-02-25T23:41:23.275Z,-1.97
2018-02-25T23:43:49.468Z,-1.98
2018-02-25T23:46:15.634Z,-2.00
2018-02-25T23:48:41.801Z,-2.02
2018-02-25T23:51:08.235Z,-2.03
2018-02-25T23:53:34.427Z,-2.06
2018-02-25T23:56:00.643Z,-2.11
2018-02-25T23:58:26.760Z,-2.11
